createdAt,value
2023-05-04T00:00:54.297Z,39.21
2023-05-04T00:03:33.906Z,39.34
2023-05-04T00:06:14.299Z,38.91
2023-05-04T00:09:15.512Z,39.25
2023-05-04T00:12:19.071Z,39.37
2023-05-04T00:14:46.053Z,39.20
2023-05-04T00:17:13.045Z,39.50
2023-05-04T00:19:54.553Z,39.43
2023-05-04T00:22:30.375Z,39.83
2023-05-04T00:24:57.187Z,39.59
2023-05-04T00:27:23.992Z,39.81
2023-05-04T00:29:50.765Z,39.92
2023-05-04T00:32:17.550Z,39.98
2023-05-04T00:34:46.171Z,39.98
2023-05-04T00:37:12.981Z,40.14
2023-05-04T00:39:39.795Z,40.12
2023-05-04T00:42:06.736Z,40.25
2023-05-04T00:44:34.690Z,40.28
2023-05-04T00:47:03.280Z,40.43
2023-05-04T00:49:30.152Z,40.30
2023-05-04T00:51:58.213Z,39.96
2023-05-04T00:54:25.831Z,40.33
2023-05-04T00:56:53.189Z,40.35
2023-05-04T00:59:22.131Z,40.52
2023-05-04T01:01:48.876Z,40.59
2023-05-04T01:04:16.465Z,40.58
2023-05-04T01:07:04.416Z,40.51
2023-05-04T01:10:02.013Z,40.33
2023-05-04T01:12:49.098Z,40.33
2023-05-04T01:15:16.220Z,40.57
2023-05-04T01:17:43.080Z,40.62
2023-05-04T01:20:10.261Z,40.83
2023-05-04T01:22:38.286Z,41.06
2023-05-04T01:25:06.571Z,41.01
2023-05-04T01:27:48.651Z,41.02
2023-05-04T01:30:23.526Z,40.98
2023-05-04T01:32:51.383Z,40.89
2023-05-04T01:35:18.303Z,41.23
2023-05-04T01:37:46.267Z,41.14
2023-05-04T01:40:13.050Z,41.19
2023-05-04T01:42:39.951Z,41.27
2023-05-04T01:45:08.064Z,41.27
2023-05-04T01:47:34.858Z,41.33
2023-05-04T01:50:02.012Z,41.41
2023-05-04T01:52:29.100Z,41.28
2023-05-04T01:54:55.893Z,41.46
2023-05-04T01:57:24.004Z,41.37
2023-05-04T01:59:50.881Z,41.66
2023-05-04T02:02:17.713Z,41.60
2023-05-04T02:04:44.541Z,41.56
2023-05-04T02:07:11.384Z,41.69
2023-05-04T02:09:38.233Z,41.83
2023-05-04T02:12:10.685Z,41.53
2023-05-04T02:15:06.478Z,41.50
2023-05-04T02:18:26.781Z,41.47
2023-05-04T02:21:04.413Z,41.56
2023-05-04T02:27:22.319Z,41.56
2023-05-04T02:30:30.207Z,41.67
2023-05-04T02:41:11.866Z,41.61
2023-05-04T02:43:55.034Z,41.71
2023-05-04T02:46:41.243Z,41.84
2023-05-04T02:52:44.933Z,41.85
2023-05-04T02:55:11.852Z,41.55
2023-05-04T02:57:51.262Z,41.85
2023-05-04T03:00:25.817Z,41.84
2023-05-04T03:03:01.290Z,42.37
2023-05-04T03:05:40.405Z,42.28
2023-05-04T03:08:24.433Z,42.32
2023-05-04T03:11:00.186Z,42.27
2023-05-04T03:13:32.628Z,42.27
2023-05-04T03:16:02.197Z,42.38
2023-05-04T03:21:13.942Z,42.60
2023-05-04T03:23:40.983Z,42.46
2023-05-04T03:26:09.857Z,42.30
2023-05-04T03:28:36.641Z,42.64
2023-05-04T03:31:03.393Z,42.75
2023-05-04T03:33:30.274Z,42.54
2023-05-04T03:35:57.055Z,42.84
2023-05-04T03:38:23.881Z,42.86
2023-05-04T03:40:50.639Z,42.88
2023-05-04T03:43:17.450Z,42.72
2023-05-04T03:45:44.246Z,43.00
2023-05-04T03:48:11.195Z,42.69
2023-05-04T03:50:38.250Z,42.80
2023-05-04T03:53:07.647Z,43.04
2023-05-04T03:55:34.408Z,42.92
2023-05-04T03:58:01.330Z,43.18
2023-05-04T04:00:28.101Z,43.17
2023-05-04T04:02:54.896Z,43.18
2023-05-04T04:05:21.778Z,43.34
2023-05-04T04:07:48.561Z,42.96
2023-05-04T04:10:15.440Z,43.09
2023-05-04T04:12:42.321Z,43.27
2023-05-04T04:15:09.582Z,43.33
2023-05-04T04:17:36.351Z,43.47
2023-05-04T04:20:03.662Z,43.47
2023-05-04T04:22:30.612Z,43.55
2023-05-04T04:24:57.488Z,43.54
2023-05-04T04:27:24.554Z,43.57
2023-05-04T04:29:51.473Z,43.90
2023-05-04T04:32:18.798Z,43.94
2023-05-04T04:34:45.559Z,43.81
2023-05-04T04:37:14.814Z,43.95
2023-05-04T04:39:42.144Z,44.18
2023-05-04T04:42:09.011Z,44.17
2023-05-04T04:44:35.906Z,44.38
2023-05-04T04:47:06.541Z,44.09
2023-05-04T04:49:33.334Z,44.44
2023-05-04T04:52:01.656Z,44.38
2023-05-04T04:54:29.285Z,44.48
2023-05-04T04:56:56.178Z,44.71
2023-05-04T04:59:24.762Z,44.39
2023-05-04T05:01:51.596Z,44.38
2023-05-04T05:04:19.630Z,44.68
2023-05-04T05:06:46.839Z,44.44
2023-05-04T05:09:14.261Z,44.53
2023-05-04T05:11:41.024Z,44.71
2023-05-04T05:14:07.808Z,44.60
2023-05-04T05:16:34.660Z,44.77
2023-05-04T05:19:01.448Z,44.54
2023-05-04T05:21:28.474Z,44.45
2023-05-04T05:23:55.342Z,44.53
2023-05-04T05:26:22.167Z,44.22
2023-05-04T05:28:51.441Z,44.28
2023-05-04T05:31:18.221Z,43.96
2023-05-04T05:33:45.187Z,44.10
2023-05-04T05:36:11.948Z,43.98
2023-05-04T05:38:39.113Z,44.15
2023-05-04T05:41:05.884Z,44.05
2023-05-04T05:43:33.443Z,43.86
2023-05-04T05:46:00.507Z,44.22
2023-05-04T05:48:27.381Z,44.13
2023-05-04T05:50:54.286Z,44.34
2023-05-04T05:53:21.087Z,44.25
2023-05-04T05:55:47.898Z,44.41
2023-05-04T05:58:14.671Z,44.11
2023-05-04T06:00:41.500Z,44.31
2023-05-04T06:03:08.488Z,44.42
2023-05-04T06:05:35.364Z,44.26
2023-05-04T06:08:02.196Z,44.59
2023-05-04T06:10:28.976Z,44.83
2023-05-04T06:12:55.933Z,44.56
2023-05-04T06:15:22.705Z,44.56
2023-05-04T06:17:49.773Z,44.49
2023-05-04T06:20:16.695Z,44.50
2023-05-04T06:22:43.550Z,44.24
2023-05-04T06:25:11.411Z,44.37
2023-05-04T06:27:38.168Z,43.96
2023-05-04T06:30:06.609Z,44.28
2023-05-04T06:32:33.779Z,44.05
2023-05-04T06:35:02.233Z,43.84
2023-05-04T06:37:29.033Z,44.02
2023-05-04T06:39:56.043Z,43.83
2023-05-04T06:42:22.810Z,43.81
2023-05-04T06:44:49.602Z,43.80
2023-05-04T06:47:16.453Z,43.71
2023-05-04T06:49:43.213Z,43.72
2023-05-04T06:52:10.423Z,43.61
2023-05-04T06:54:37.248Z,43.71
2023-05-04T06:57:04.430Z,43.61
2023-05-04T06:59:31.297Z,43.47
2023-05-04T07:01:58.135Z,43.20
2023-05-04T07:04:24.904Z,43.21
2023-05-04T07:06:52.128Z,43.13
2023-05-04T07:09:19.897Z,42.77
2023-05-04T07:11:48.515Z,42.64
2023-05-04T07:14:18.551Z,42.68
2023-05-04T07:16:45.523Z,42.29
2023-05-04T07:19:12.666Z,42.36
2023-05-04T07:21:39.436Z,42.43
2023-05-04T07:24:07.122Z,42.23
2023-05-04T07:26:34.089Z,42.25
2023-05-04T07:29:00.927Z,41.87
2023-05-04T07:31:29.504Z,42.03
2023-05-04T07:33:57.379Z,41.93
2023-05-04T07:36:26.454Z,41.95
2023-05-04T07:38:53.893Z,41.84
2023-05-04T07:41:20.839Z,41.91
2023-05-04T07:43:47.726Z,41.87
2023-05-04T07:46:14.498Z,41.37
2023-05-04T07:48:41.384Z,41.29
2023-05-04T07:51:16.169Z,41.22
2023-05-04T07:53:43.575Z,41.25
2023-05-04T07:56:12.581Z,41.18
2023-05-04T07:58:39.657Z,41.17
2023-05-04T08:01:06.511Z,40.80
2023-05-04T08:03:33.351Z,40.83
2023-05-04T08:06:00.242Z,41.12
2023-05-04T08:08:27.091Z,40.75
2023-05-04T08:10:54.970Z,40.82
2023-05-04T08:13:23.182Z,40.97
2023-05-04T08:15:49.933Z,40.65
2023-05-04T08:18:16.722Z,40.65
2023-05-04T08:20:43.609Z,40.51
2023-05-04T08:23:10.434Z,40.45
2023-05-04T08:25:37.198Z,40.35
2023-05-04T08:28:04.758Z,39.91
2023-05-04T08:30:31.548Z,39.83
2023-05-04T08:32:59.194Z,39.69
2023-05-04T08:35:27.810Z,39.61
2023-05-04T08:37:54.675Z,39.53
2023-05-04T08:40:23.964Z,39.58
2023-05-04T08:42:52.943Z,39.42
2023-05-04T08:45:19.785Z,39.51
2023-05-04T08:47:46.739Z,38.88
2023-05-04T08:50:13.624Z,38.95
2023-05-04T08:52:46.580Z,38.50
2023-05-04T08:55:16.186Z,38.35
2023-05-04T08:57:44.596Z,38.68
2023-05-04T09:00:15.371Z,38.67
2023-05-04T09:02:43.121Z,38.59
2023-05-04T09:05:11.957Z,38.50
2023-05-04T09:07:38.798Z,38.37
2023-05-04T09:10:06.499Z,38.18
2023-05-04T09:12:33.417Z,38.15
2023-05-04T09:15:02.291Z,37.51
2023-05-04T09:17:29.646Z,37.51
2023-05-04T09:20:01.546Z,37.11
2023-05-04T09:22:30.311Z,37.08
2023-05-04T09:25:13.591Z,36.62
2023-05-04T09:27:42.584Z,36.85
2023-05-04T09:30:10.817Z,36.43
2023-05-04T09:32:46.663Z,36.41
2023-05-04T09:35:29.153Z,36.30
2023-05-04T09:38:00.168Z,36.17
2023-05-04T09:40:42.867Z,35.94
2023-05-04T09:43:10.703Z,35.61
2023-05-04T09:45:43.786Z,35.88
2023-05-04T09:48:25.351Z,35.43
2023-05-04T09:50:58.271Z,35.30
2023-05-04T09:53:32.133Z,35.31
2023-05-04T09:56:27.651Z,35.54
2023-05-04T09:59:00.321Z,35.33
2023-05-04T10:01:29.646Z,35.10
2023-05-04T10:03:56.885Z,34.68
2023-05-04T10:06:24.638Z,34.59
2023-05-04T10:08:51.515Z,34.75
2023-05-04T10:11:20.159Z,34.23
2023-05-04T10:13:50.384Z,34.57
2023-05-04T10:16:38.274Z,34.63
2023-05-04T10:19:22.933Z,34.60
2023-05-04T10:22:55.089Z,34.47
2023-05-04T10:25:52.786Z,34.15
2023-05-04T10:28:39.509Z,33.91
2023-05-04T10:31:07.392Z,33.73
2023-05-04T10:33:43.988Z,33.25
2023-05-04T10:36:11.603Z,33.22
2023-05-04T10:38:40.442Z,33.35
2023-05-04T10:41:18.474Z,33.38
2023-05-04T10:43:50.931Z,32.73
2023-05-04T10:46:22.725Z,32.70
2023-05-04T10:48:50.782Z,32.56
2023-05-04T10:51:30.060Z,32.23
2023-05-04T10:54:01.375Z,32.32
2023-05-04T10:56:29.402Z,32.50
2023-05-04T10:58:56.477Z,32.64
2023-05-04T11:01:23.972Z,32.39
2023-05-04T11:03:55.206Z,32.05
2023-05-04T11:06:25.482Z,31.41
2023-05-04T11:09:03.360Z,31.87
2023-05-04T11:11:30.311Z,31.60
2023-05-04T11:13:58.689Z,31.69
2023-05-04T11:16:27.183Z,31.83
2023-05-04T11:18:54.791Z,31.33
2023-05-04T11:21:27.924Z,30.79
2023-05-04T11:23:59.572Z,31.02
2023-05-04T11:26:29.973Z,30.58
2023-05-04T11:28:57.025Z,30.25
2023-05-04T11:31:23.843Z,30.55
2023-05-04T11:33:54.576Z,30.33
2023-05-04T11:36:22.565Z,30.52
2023-05-04T11:38:50.054Z,30.59
2023-05-04T11:41:16.924Z,30.23
2023-05-04T11:43:45.228Z,30.23
2023-05-04T11:46:12.969Z,29.66
2023-05-04T11:48:40.802Z,28.91
2023-05-04T11:51:07.726Z,28.83
2023-05-04T11:53:39.557Z,29.33
2023-05-04T11:56:08.815Z,29.38
2023-05-04T11:58:36.508Z,28.99
2023-05-04T12:01:04.180Z,28.79
2023-05-04T12:03:43.934Z,28.89
2023-05-04T12:06:18.882Z,28.51
2023-05-04T12:08:45.850Z,28.46
2023-05-04T12:11:21.496Z,28.42
2023-05-04T12:13:49.821Z,27.83
2023-05-04T12:18:48.435Z,27.06
2023-05-04T12:21:19.155Z,27.11
2023-05-04T12:23:47.373Z,27.49
2023-05-04T12:26:16.273Z,27.69
2023-05-04T12:28:45.401Z,27.69
2023-05-04T12:31:12.364Z,27.49
2023-05-04T12:33:39.270Z,27.25
2023-05-04T12:36:06.704Z,27.22
2023-05-04T12:38:33.937Z,27.30
2023-05-04T12:41:04.195Z,27.54
2023-05-04T12:43:32.196Z,27.16
2023-05-04T12:45:59.259Z,27.06
2023-05-04T12:48:28.892Z,26.80
2023-05-04T12:50:56.038Z,26.88
2023-05-04T12:53:25.651Z,26.68
2023-05-04T12:55:52.523Z,26.73
2023-05-04T12:58:19.478Z,26.62
2023-05-04T13:00:46.333Z,26.66
2023-05-04T13:03:13.708Z,26.42
2023-05-04T13:05:40.650Z,26.45
2023-05-04T13:08:07.683Z,26.32
2023-05-04T13:10:34.477Z,26.21
2023-05-04T13:13:01.379Z,25.85
2023-05-04T13:15:28.213Z,25.74
2023-05-04T13:17:55.096Z,26.10
2023-05-04T13:20:22.648Z,25.74
2023-05-04T13:22:50.514Z,25.88
2023-05-04T13:25:17.405Z,26.04
2023-05-04T13:27:44.344Z,26.22
2023-05-04T13:30:11.955Z,26.07
2023-05-04T13:32:38.789Z,25.94
2023-05-04T13:35:06.668Z,26.26
2023-05-04T13:37:33.825Z,26.38
2023-05-04T13:40:01.632Z,26.48
2023-05-04T13:42:28.538Z,26.08
2023-05-04T13:44:55.343Z,26.42
2023-05-04T13:47:23.653Z,26.23
2023-05-04T13:49:50.949Z,25.89
2023-05-04T13:52:17.700Z,26.21
2023-05-04T13:54:44.632Z,26.01
2023-05-04T13:57:11.390Z,26.07
2023-05-04T13:59:38.188Z,26.04
2023-05-04T14:02:05.121Z,25.85
2023-05-04T14:04:31.990Z,26.09
2023-05-04T14:06:59.844Z,26.10
2023-05-04T14:09:26.838Z,26.26
2023-05-04T14:11:59.013Z,26.35
2023-05-04T14:14:26.026Z,26.31
2023-05-04T14:20:16.042Z,26.76
2023-05-04T14:22:45.897Z,26.27
2023-05-04T14:26:36.260Z,26.54
2023-05-04T14:29:32.762Z,26.63
2023-05-04T14:32:02.762Z,26.23
2023-05-04T14:37:23.585Z,26.37
2023-05-04T14:39:51.672Z,26.19
2023-05-04T14:42:18.522Z,25.89
2023-05-04T14:44:47.913Z,26.50
2023-05-04T14:47:14.757Z,26.39
2023-05-04T14:49:42.846Z,26.21
2023-05-04T14:52:09.821Z,26.45
2023-05-04T14:54:37.668Z,26.54
2023-05-04T14:57:05.004Z,26.42
2023-05-04T14:59:31.940Z,26.46
2023-05-04T15:01:58.683Z,26.55
2023-05-04T15:04:25.630Z,26.52
2023-05-04T15:06:52.562Z,26.37
2023-05-04T15:09:19.319Z,26.36
2023-05-04T15:11:46.172Z,26.65
2023-05-04T15:14:13.242Z,26.79
2023-05-04T15:16:40.296Z,26.81
2023-05-04T15:19:07.814Z,26.93
2023-05-04T15:21:34.583Z,26.94
2023-05-04T15:24:01.893Z,27.08
2023-05-04T15:26:31.311Z,26.89
2023-05-04T15:28:58.414Z,27.21
2023-05-04T15:31:25.420Z,27.11
2023-05-04T15:33:52.189Z,27.21
2023-05-04T15:36:23.413Z,27.06
2023-05-04T15:38:50.190Z,27.18
2023-05-04T15:41:16.960Z,27.47
2023-05-04T15:43:43.797Z,27.44
2023-05-04T15:46:10.597Z,27.51
2023-05-04T15:48:37.398Z,27.45
2023-05-04T15:51:10.227Z,27.29
2023-05-04T15:53:39.929Z,27.50
2023-05-04T15:56:09.943Z,27.26
2023-05-04T15:58:36.805Z,27.65
2023-05-04T16:01:09.183Z,27.48
2023-05-04T16:03:41.450Z,27.55
2023-05-04T16:09:30.498Z,27.57
2023-05-04T16:12:00.424Z,27.96
2023-05-04T16:14:33.600Z,27.69
2023-05-04T16:22:10.935Z,28.20
2023-05-04T16:24:43.832Z,28.10
2023-05-04T16:27:10.623Z,28.23
2023-05-04T16:29:37.441Z,28.33
2023-05-04T16:32:04.639Z,28.25
2023-05-04T16:34:31.463Z,28.37
2023-05-04T16:36:58.218Z,28.54
2023-05-04T16:39:31.535Z,28.26
2023-05-04T16:41:58.659Z,28.78
2023-05-04T16:44:26.137Z,28.69
2023-05-04T16:46:54.357Z,28.82
2023-05-04T16:49:24.115Z,28.75
2023-05-04T16:51:53.414Z,28.78
2023-05-04T16:54:20.965Z,28.97
2023-05-04T16:56:48.080Z,29.06
2023-05-04T16:59:14.949Z,28.81
2023-05-04T17:01:42.645Z,28.95
2023-05-04T17:04:10.707Z,29.08
2023-05-04T17:06:37.995Z,28.95
2023-05-04T17:09:05.584Z,29.06
2023-05-04T17:11:32.602Z,29.17
2023-05-04T17:13:59.963Z,29.02
2023-05-04T17:16:26.976Z,29.09
2023-05-04T17:18:53.794Z,29.21
2023-05-04T17:21:20.621Z,29.16
2023-05-04T17:23:47.396Z,29.33
2023-05-04T17:26:14.132Z,29.33
2023-05-04T17:28:40.890Z,29.40
2023-05-04T17:31:12.286Z,29.55
2023-05-04T17:33:39.654Z,29.44
2023-05-04T17:36:07.645Z,29.21
2023-05-04T17:38:34.578Z,29.90
2023-05-04T17:41:01.396Z,29.64
2023-05-04T17:43:28.292Z,29.79
2023-05-04T17:45:55.944Z,29.69
2023-05-04T17:48:24.004Z,29.70
2023-05-04T17:50:51.465Z,29.79
2023-05-04T17:53:18.575Z,29.69
2023-05-04T17:55:45.486Z,29.90
2023-05-04T17:58:12.239Z,29.77
2023-05-04T18:00:39.057Z,29.74
2023-05-04T18:03:05.863Z,29.96
2023-05-04T18:05:32.845Z,29.70
2023-05-04T18:07:59.650Z,29.79
2023-05-04T18:10:26.908Z,30.03
2023-05-04T18:12:56.172Z,29.95
2023-05-04T18:15:24.203Z,29.83
2023-05-04T18:17:51.076Z,30.01
2023-05-04T18:20:18.351Z,29.91
2023-05-04T18:22:46.521Z,30.08
2023-05-04T18:25:15.238Z,30.16
2023-05-04T18:27:42.234Z,30.18
2023-05-04T18:30:10.757Z,30.05
2023-05-04T18:32:37.751Z,30.31
2023-05-04T18:35:04.908Z,30.36
2023-05-04T18:37:31.702Z,30.45
2023-05-04T18:39:59.024Z,30.33
2023-05-04T18:42:26.024Z,30.15
2023-05-04T18:44:53.631Z,30.42
2023-05-04T18:47:20.865Z,30.33
2023-05-04T18:49:52.425Z,30.51
2023-05-04T18:52:19.279Z,30.52
2023-05-04T18:54:46.433Z,30.79
2023-05-04T18:57:14.120Z,30.39
2023-05-04T18:59:40.969Z,30.52
2023-05-04T19:02:08.408Z,30.34
2023-05-04T19:04:35.455Z,30.50
2023-05-04T19:07:02.198Z,30.70
2023-05-04T19:09:29.048Z,30.85
2023-05-04T19:11:55.898Z,30.74
2023-05-04T19:14:22.641Z,30.85
2023-05-04T19:16:50.366Z,30.48
2023-05-04T19:19:17.652Z,30.57
2023-05-04T19:21:44.412Z,30.54
2023-05-04T19:24:11.195Z,30.89
2023-05-04T19:26:38.995Z,30.83
2023-05-04T19:29:05.855Z,30.92
2023-05-04T19:31:32.771Z,30.93
2023-05-04T19:33:59.570Z,30.94
2023-05-04T19:36:27.211Z,31.08
2023-05-04T19:38:54.220Z,30.84
2023-05-04T19:41:21.225Z,31.21
2023-05-04T19:43:47.982Z,30.80
2023-05-04T19:46:14.828Z,30.77
2023-05-04T19:48:41.803Z,31.21
2023-05-04T19:51:08.570Z,31.27
2023-05-04T19:53:35.404Z,31.12
2023-05-04T19:56:02.171Z,31.33
2023-05-04T19:58:30.769Z,31.27
2023-05-04T20:00:57.961Z,31.49
2023-05-04T20:03:24.868Z,31.26
2023-05-04T20:05:52.249Z,31.41
2023-05-04T20:08:19.456Z,31.36
2023-05-04T20:10:46.277Z,31.68
2023-05-04T20:13:13.647Z,31.61
2023-05-04T20:15:40.581Z,31.66
2023-05-04T20:18:07.429Z,31.76
2023-05-04T20:20:34.354Z,31.61
2023-05-04T20:23:01.150Z,31.64
2023-05-04T20:25:27.981Z,31.75
2023-05-04T20:27:54.843Z,31.83
2023-05-04T20:30:21.690Z,31.73
2023-05-04T20:32:49.217Z,31.93
2023-05-04T20:35:17.063Z,31.88
2023-05-04T20:37:44.201Z,31.79
2023-05-04T20:40:12.057Z,32.12
2023-05-04T20:42:39.149Z,31.84
2023-05-04T20:45:07.465Z,31.85
2023-05-04T20:47:34.576Z,31.91
2023-05-04T20:50:01.410Z,31.81
2023-05-04T20:52:28.585Z,31.71
2023-05-04T20:54:55.471Z,31.56
2023-05-04T20:57:22.294Z,31.81
2023-05-04T20:59:49.178Z,32.01
2023-05-04T21:02:16.026Z,31.70
2023-05-04T21:04:43.321Z,31.76
2023-05-04T21:07:10.124Z,31.74
2023-05-04T21:09:36.936Z,31.83
2023-05-04T21:12:03.881Z,31.89
2023-05-04T21:14:30.728Z,31.76
2023-05-04T21:16:57.512Z,31.89
2023-05-04T21:19:24.298Z,31.88
2023-05-04T21:21:51.140Z,32.03
2023-05-04T21:24:17.932Z,31.92
2023-05-04T21:26:45.877Z,32.01
2023-05-04T21:29:13.023Z,32.06
2023-05-04T21:31:40.291Z,32.11
2023-05-04T21:34:08.193Z,32.06
2023-05-04T21:36:35.447Z,32.20
2023-05-04T21:39:02.225Z,32.23
2023-05-04T21:41:29.804Z,32.20
2023-05-04T21:43:56.660Z,32.52
2023-05-04T21:46:23.493Z,32.45
2023-05-04T21:48:51.664Z,32.39
2023-05-04T21:51:20.630Z,32.49
2023-05-04T21:53:47.739Z,32.75
2023-05-04T21:56:14.660Z,32.89
2023-05-04T21:58:42.030Z,32.75
2023-05-04T22:01:09.468Z,32.74
2023-05-04T22:03:36.413Z,32.94
2023-05-04T22:06:03.390Z,33.00
2023-05-04T22:08:30.523Z,32.98
2023-05-04T22:10:58.583Z,33.05
2023-05-04T22:13:26.197Z,33.30
2023-05-04T22:15:53.724Z,33.36
2023-05-04T22:18:20.947Z,33.35
2023-05-04T22:20:47.867Z,33.30
2023-05-04T22:23:14.732Z,33.46
2023-05-04T22:25:41.944Z,33.46
2023-05-04T22:28:08.730Z,33.62
2023-05-04T22:30:35.807Z,33.69
2023-05-04T22:33:02.817Z,33.92
2023-05-04T22:35:31.526Z,33.98
2023-05-04T22:37:58.520Z,34.05
2023-05-04T22:40:25.409Z,34.00
2023-05-04T22:42:52.348Z,33.83
2023-05-04T22:45:19.241Z,34.04
2023-05-04T22:47:48.668Z,34.03
2023-05-04T22:50:15.562Z,34.35
2023-05-04T22:52:42.529Z,34.39
2023-05-04T22:55:09.504Z,34.31
2023-05-04T22:57:36.713Z,34.40
2023-05-04T23:00:07.491Z,34.54
2023-05-04T23:02:42.353Z,34.44
2023-05-04T23:05:09.282Z,34.26
2023-05-04T23:07:36.150Z,34.59
2023-05-04T23:10:06.775Z,34.69
2023-05-04T23:12:33.746Z,34.77
2023-05-04T23:15:00.498Z,34.91
2023-05-04T23:17:27.324Z,35.05
2023-05-04T23:19:54.079Z,34.85
2023-05-04T23:22:20.848Z,34.98
2023-05-04T23:24:47.639Z,35.13
2023-05-04T23:27:14.509Z,35.08
2023-05-04T23:29:41.340Z,35.10
2023-05-04T23:32:08.249Z,35.13
2023-05-04T23:34:35.110Z,35.27
2023-05-04T23:37:01.920Z,35.16
2023-05-04T23:39:28.739Z,35.44
2023-05-04T23:41:55.500Z,35.48
2023-05-04T23:44:22.365Z,35.56
2023-05-04T23:46:49.147Z,35.58
2023-05-04T23:49:16.392Z,35.69
2023-05-04T23:51:43.276Z,35.60
2023-05-04T23:54:10.434Z,35.78
2023-05-04T23:56:39.497Z,35.88
2023-05-04T23:59:06.324Z,36.03
